Alpena, Arkansas
Current Conditions -  °F | °C
As of 3:53 AM on Saturday 01 Nov 2014 (Local Time) from KHRO Reporting Station
Clear Clear  
Wind Chill: 28°   Ceiling: Unl
Heat Index: 28°   Visibility: 10mi
Dew Point: 19°   Wind: 3mph
Humidity: 69%   Direction: 290°WNW
Pressure: 30.41"   Gusts: NA
Location:  36.29°N, 93.29°W
Report Text: KHRO 010853Z AUTO 29003KT 10SM CLR M02/M07 A3041 RMK AO2 SLP304 T10221072 53003
Loading
Personal Weather Stations






























Interactive Weather Map
Tropical Storm Tracking
New forecast layout! Learn more

10-Day Weather Forecast

Advertisements
Track Severe Weather on mobile